sensor_id;sensor_type;location;lat;lon;timestamp;temperature;humidity
12233;DHT22;6179;51.748;8.728;2022-08-30T00:04:42;15.60;98.30
12233;DHT22;6179;51.748;8.728;2022-08-30T00:10:43;15.40;98.30
12233;DHT22;6179;51.748;8.728;2022-08-30T00:16:45;15.50;98.30
12233;DHT22;6179;51.748;8.728;2022-08-30T00:22:46;15.40;98.30
12233;DHT22;6179;51.748;8.728;2022-08-30T00:28:47;15.40;98.30
12233;DHT22;6179;51.748;8.728;2022-08-30T00:34:52;15.40;98.30
12233;DHT22;6179;51.748;8.728;2022-08-30T00:40:54;16.20;96.30
12233;DHT22;6179;51.748;8.728;2022-08-30T00:46:55;16.10;96.80
12233;DHT22;6179;51.748;8.728;2022-08-30T00:52:59;16.40;95.50
12233;DHT22;6179;51.748;8.728;2022-08-30T00:59:05;16.00;96.10
12233;DHT22;6179;51.748;8.728;2022-08-30T01:05:08;15.90;96.50
12233;DHT22;6179;51.748;8.728;2022-08-30T01:11:12;15.80;97.00
12233;DHT22;6179;51.748;8.728;2022-08-30T01:17:16;15.60;97.30
12233;DHT22;6179;51.748;8.728;2022-08-30T01:23:19;15.40;98.00
12233;DHT22;6179;51.748;8.728;2022-08-30T01:29:22;15.20;98.30
12233;DHT22;6179;51.748;8.728;2022-08-30T01:35:25;15.30;98.30
12233;DHT22;6179;51.748;8.728;2022-08-30T01:41:33;15.30;98.30
12233;DHT22;6179;51.748;8.728;2022-08-30T01:47:35;15.60;98.00
12233;DHT22;6179;51.748;8.728;2022-08-30T01:53:38;15.60;98.00
12233;DHT22;6179;51.748;8.728;2022-08-30T01:59:42;15.10;98.30
12233;DHT22;6179;51.748;8.728;2022-08-30T02:05:46;14.90;98.30
12233;DHT22;6179;51.748;8.728;2022-08-30T02:11:47;14.50;98.30
12233;DHT22;6179;51.748;8.728;2022-08-30T02:17:48;14.40;98.30
12233;DHT22;6179;51.748;8.728;2022-08-30T02:23:50;14.30;98.30
12233;DHT22;6179;51.748;8.728;2022-08-30T02:29:51;14.30;98.30
12233;DHT22;6179;51.748;8.728;2022-08-30T02:35:54;14.20;98.30
12233;DHT22;6179;51.748;8.728;2022-08-30T02:41:55;14.20;98.30
12233;DHT22;6179;51.748;8.728;2022-08-30T02:47:56;14.10;98.30
12233;DHT22;6179;51.748;8.728;2022-08-30T02:53:57;14.10;98.30
12233;DHT22;6179;51.748;8.728;2022-08-30T02:59:58;14.10;98.30
12233;DHT22;6179;51.748;8.728;2022-08-30T03:05:59;13.90;98.30
12233;DHT22;6179;51.748;8.728;2022-08-30T03:12:02;14.00;98.30
12233;DHT22;6179;51.748;8.728;2022-08-30T03:18:05;14.20;98.30
12233;DHT22;6179;51.748;8.728;2022-08-30T03:24:07;14.40;98.30
12233;DHT22;6179;51.748;8.728;2022-08-30T03:30:09;14.50;98.30
12233;DHT22;6179;51.748;8.728;2022-08-30T03:36:10;14.30;98.30
12233;DHT22;6179;51.748;8.728;2022-08-30T03:42:12;14.10;98.30
12233;DHT22;6179;51.748;8.728;2022-08-30T03:48:13;13.90;98.30
12233;DHT22;6179;51.748;8.728;2022-08-30T03:54:14;13.80;98.30
12233;DHT22;6179;51.748;8.728;2022-08-30T04:00:18;13.80;98.30
12233;DHT22;6179;51.748;8.728;2022-08-30T04:06:20;13.60;98.30
12233;DHT22;6179;51.748;8.728;2022-08-30T04:12:21;13.80;98.30
12233;DHT22;6179;51.748;8.728;2022-08-30T04:18:24;14.10;98.30
12233;DHT22;6179;51.748;8.728;2022-08-30T04:24:26;14.50;98.30
12233;DHT22;6179;51.748;8.728;2022-08-30T04:30:27;14.00;98.30
12233;DHT22;6179;51.748;8.728;2022-08-30T04:36:28;13.30;98.30
12233;DHT22;6179;51.748;8.728;2022-08-30T04:42:31;13.20;98.30
12233;DHT22;6179;51.748;8.728;2022-08-30T04:48:34;13.10;98.30
12233;DHT22;6179;51.748;8.728;2022-08-30T04:54:36;13.10;98.30
12233;DHT22;6179;51.748;8.728;2022-08-30T05:00:37;13.30;98.30
12233;DHT22;6179;51.748;8.728;2022-08-30T05:06:41;13.40;98.30
12233;DHT22;6179;51.748;8.728;2022-08-30T05:12:43;13.40;98.30
12233;DHT22;6179;51.748;8.728;2022-08-30T05:18:48;13.40;98.30
12233;DHT22;6179;51.748;8.728;2022-08-30T05:24:51;13.70;98.30
12233;DHT22;6179;51.748;8.728;2022-08-30T05:30:52;14.00;98.30
12233;DHT22;6179;51.748;8.728;2022-08-30T05:36:52;14.20;98.30
12233;DHT22;6179;51.748;8.728;2022-08-30T05:42:53;14.30;98.30
12233;DHT22;6179;51.748;8.728;2022-08-30T05:48:54;14.50;98.30
12233;DHT22;6179;51.748;8.728;2022-08-30T05:54:56;14.40;98.30
12233;DHT22;6179;51.748;8.728;2022-08-30T06:01:04;14.50;98.30
12233;DHT22;6179;51.748;8.728;2022-08-30T06:07:05;14.70;98.30
12233;DHT22;6179;51.748;8.728;2022-08-30T06:13:06;15.10;98.30
12233;DHT22;6179;51.748;8.728;2022-08-30T06:19:07;15.20;98.30
12233;DHT22;6179;51.748;8.728;2022-08-30T06:25:10;15.80;98.30
12233;DHT22;6179;51.748;8.728;2022-08-30T06:31:13;15.90;98.30
12233;DHT22;6179;51.748;8.728;2022-08-30T06:37:15;16.20;98.30
12233;DHT22;6179;51.748;8.728;2022-08-30T06:43:16;16.60;98.30
12233;DHT22;6179;51.748;8.728;2022-08-30T06:49:17;16.90;98.10
12233;DHT22;6179;51.748;8.728;2022-08-30T06:55:18;17.00;98.30
12233;DHT22;6179;51.748;8.728;2022-08-30T07:01:24;17.60;95.80
12233;DHT22;6179;51.748;8.728;2022-08-30T07:07:27;17.50;96.90
12233;DHT22;6179;51.748;8.728;2022-08-30T07:13:28;17.70;96.50
12233;DHT22;6179;51.748;8.728;2022-08-30T07:19:29;18.00;95.60
12233;DHT22;6179;51.748;8.728;2022-08-30T07:25:31;18.10;95.50
12233;DHT22;6179;51.748;8.728;2022-08-30T07:31:33;18.40;94.70
12233;DHT22;6179;51.748;8.728;2022-08-30T07:37:35;18.90;92.70
12233;DHT22;6179;51.748;8.728;2022-08-30T07:43:36;18.80;93.20
12233;DHT22;6179;51.748;8.728;2022-08-30T07:49:37;18.60;93.70
12233;DHT22;6179;51.748;8.728;2022-08-30T07:55:38;19.00;93.90
12233;DHT22;6179;51.748;8.728;2022-08-30T08:01:39;19.10;93.60
12233;DHT22;6179;51.748;8.728;2022-08-30T08:07:40;19.80;89.10
12233;DHT22;6179;51.748;8.728;2022-08-30T08:13:41;19.80;90.20
12233;DHT22;6179;51.748;8.728;2022-08-30T08:19:44;19.90;89.30
12233;DHT22;6179;51.748;8.728;2022-08-30T08:25:44;20.40;88.30
12233;DHT22;6179;51.748;8.728;2022-08-30T08:31:45;19.80;89.80
12233;DHT22;6179;51.748;8.728;2022-08-30T08:37:46;19.90;88.70
12233;DHT22;6179;51.748;8.728;2022-08-30T08:43:47;20.00;89.20
12233;DHT22;6179;51.748;8.728;2022-08-30T08:49:52;19.90;90.10
12233;DHT22;6179;51.748;8.728;2022-08-30T08:55:57;20.00;88.90
12233;DHT22;6179;51.748;8.728;2022-08-30T09:02:00;20.20;88.10
12233;DHT22;6179;51.748;8.728;2022-08-30T09:08:13;20.50;87.60
12233;DHT22;6179;51.748;8.728;2022-08-30T09:14:21;20.40;88.40
12233;DHT22;6179;51.748;8.728;2022-08-30T09:20:32;20.50;88.40
12233;DHT22;6179;51.748;8.728;2022-08-30T09:26:36;20.60;87.60
12233;DHT22;6179;51.748;8.728;2022-08-30T09:32:41;20.60;88.40
12233;DHT22;6179;51.748;8.728;2022-08-30T09:45:32;20.80;88.10
12233;DHT22;6179;51.748;8.728;2022-08-30T09:51:48;21.10;86.40
12233;DHT22;6179;51.748;8.728;2022-08-30T09:58:09;21.20;86.60
12233;DHT22;6179;51.748;8.728;2022-08-30T10:04:31;21.60;85.20
12233;DHT22;6179;51.748;8.728;2022-08-30T10:10:51;21.60;84.50
12233;DHT22;6179;51.748;8.728;2022-08-30T10:17:00;21.90;83.80
12233;DHT22;6179;51.748;8.728;2022-08-30T10:23:15;21.80;83.50
12233;DHT22;6179;51.748;8.728;2022-08-30T10:29:33;22.00;81.70
12233;DHT22;6179;51.748;8.728;2022-08-30T10:36:02;22.00;82.10
12233;DHT22;6179;51.748;8.728;2022-08-30T10:42:51;22.10;81.30
12233;DHT22;6179;51.748;8.728;2022-08-30T10:48:40;21.60;82.60
12233;DHT22;6179;51.748;8.728;2022-08-30T11:14:21;22.80;77.80
12233;DHT22;6179;51.748;8.728;2022-08-30T11:20:30;22.70;79.10
12233;DHT22;6179;51.748;8.728;2022-08-30T11:39:06;23.90;76.30
12233;DHT22;6179;51.748;8.728;2022-08-30T11:58:05;24.00;71.20
12233;DHT22;6179;51.748;8.728;2022-08-30T12:10:55;24.00;73.00
12233;DHT22;6179;51.748;8.728;2022-08-30T12:17:02;24.40;71.30
12233;DHT22;6179;51.748;8.728;2022-08-30T12:30:08;24.10;72.00
12233;DHT22;6179;51.748;8.728;2022-08-30T12:36:37;24.50;71.20
12233;DHT22;6179;51.748;8.728;2022-08-30T12:42:49;24.20;69.80
12233;DHT22;6179;51.748;8.728;2022-08-30T12:48:50;24.60;70.80
12233;DHT22;6179;51.748;8.728;2022-08-30T12:54:54;25.50;68.40
12233;DHT22;6179;51.748;8.728;2022-08-30T13:07:35;25.40;66.00
12233;DHT22;6179;51.748;8.728;2022-08-30T13:13:43;25.40;67.90
12233;DHT22;6179;51.748;8.728;2022-08-30T13:20:05;25.70;67.90
12233;DHT22;6179;51.748;8.728;2022-08-30T13:26:20;25.50;66.30
12233;DHT22;6179;51.748;8.728;2022-08-30T13:32:21;25.90;65.80
12233;DHT22;6179;51.748;8.728;2022-08-30T13:38:23;25.50;66.90
12233;DHT22;6179;51.748;8.728;2022-08-30T13:44:24;25.30;65.50
12233;DHT22;6179;51.748;8.728;2022-08-30T13:50:24;25.20;66.30
12233;DHT22;6179;51.748;8.728;2022-08-30T13:56:29;25.70;66.10
12233;DHT22;6179;51.748;8.728;2022-08-30T14:02:31;25.50;66.70
12233;DHT22;6179;51.748;8.728;2022-08-30T14:08:32;24.90;67.20
12233;DHT22;6179;51.748;8.728;2022-08-30T14:14:34;25.20;66.20
12233;DHT22;6179;51.748;8.728;2022-08-30T14:20:35;25.10;67.40
12233;DHT22;6179;51.748;8.728;2022-08-30T14:26:45;25.10;67.10
12233;DHT22;6179;51.748;8.728;2022-08-30T14:32:48;24.80;67.70
12233;DHT22;6179;51.748;8.728;2022-08-30T14:38:49;25.20;67.10
12233;DHT22;6179;51.748;8.728;2022-08-30T14:44:50;25.10;66.80
12233;DHT22;6179;51.748;8.728;2022-08-30T14:50:51;25.50;65.80
12233;DHT22;6179;51.748;8.728;2022-08-30T14:56:53;25.50;65.70
12233;DHT22;6179;51.748;8.728;2022-08-30T15:02:54;25.60;63.90
12233;DHT22;6179;51.748;8.728;2022-08-30T15:08:55;25.60;62.40
12233;DHT22;6179;51.748;8.728;2022-08-30T15:14:56;25.90;63.00
12233;DHT22;6179;51.748;8.728;2022-08-30T15:20:57;26.40;61.60
12233;DHT22;6179;51.748;8.728;2022-08-30T15:26:59;27.20;57.60
12233;DHT22;6179;51.748;8.728;2022-08-30T15:33:00;27.20;57.20
12233;DHT22;6179;51.748;8.728;2022-08-30T15:39:01;27.10;58.50
12233;DHT22;6179;51.748;8.728;2022-08-30T15:45:03;26.90;58.70
12233;DHT22;6179;51.748;8.728;2022-08-30T15:51:04;27.10;56.80
12233;DHT22;6179;51.748;8.728;2022-08-30T15:57:07;26.00;59.80
12233;DHT22;6179;51.748;8.728;2022-08-30T16:03:07;25.50;60.00
12233;DHT22;6179;51.748;8.728;2022-08-30T16:09:09;25.40;60.40
12233;DHT22;6179;51.748;8.728;2022-08-30T16:15:10;25.70;59.30
12233;DHT22;6179;51.748;8.728;2022-08-30T16:21:14;25.40;61.10
12233;DHT22;6179;51.748;8.728;2022-08-30T16:27:18;25.00;61.80
12233;DHT22;6179;51.748;8.728;2022-08-30T16:33:19;25.20;61.90
12233;DHT22;6179;51.748;8.728;2022-08-30T16:39:20;25.80;58.80
12233;DHT22;6179;51.748;8.728;2022-08-30T16:45:21;25.10;61.40
12233;DHT22;6179;51.748;8.728;2022-08-30T16:51:24;25.00;60.80
12233;DHT22;6179;51.748;8.728;2022-08-30T16:57:26;23.80;63.70
12233;DHT22;6179;51.748;8.728;2022-08-30T17:03:27;23.60;64.70
12233;DHT22;6179;51.748;8.728;2022-08-30T17:09:28;23.30;64.50
12233;DHT22;6179;51.748;8.728;2022-08-30T17:15:29;23.40;64.30
12233;DHT22;6179;51.748;8.728;2022-08-30T17:21:30;23.30;64.70
12233;DHT22;6179;51.748;8.728;2022-08-30T17:27:31;22.90;64.80
12233;DHT22;6179;51.748;8.728;2022-08-30T17:33:32;22.50;65.50
12233;DHT22;6179;51.748;8.728;2022-08-30T17:39:38;22.50;65.30
12233;DHT22;6179;51.748;8.728;2022-08-30T17:45:39;22.40;65.90
12233;DHT22;6179;51.748;8.728;2022-08-30T17:51:41;22.50;65.40
12233;DHT22;6179;51.748;8.728;2022-08-30T17:57:43;22.30;65.50
12233;DHT22;6179;51.748;8.728;2022-08-30T18:03:44;21.80;67.50
12233;DHT22;6179;51.748;8.728;2022-08-30T18:09:45;21.70;67.90
12233;DHT22;6179;51.748;8.728;2022-08-30T18:15:46;21.90;67.20
12233;DHT22;6179;51.748;8.728;2022-08-30T18:21:47;21.90;67.20
12233;DHT22;6179;51.748;8.728;2022-08-30T18:27:48;21.40;68.10
12233;DHT22;6179;51.748;8.728;2022-08-30T18:33:49;21.40;68.30
12233;DHT22;6179;51.748;8.728;2022-08-30T18:39:50;21.00;70.20
12233;DHT22;6179;51.748;8.728;2022-08-30T18:45:51;21.00;70.10
12233;DHT22;6179;51.748;8.728;2022-08-30T18:51:52;21.30;69.60
12233;DHT22;6179;51.748;8.728;2022-08-30T18:57:53;21.20;69.70
12233;DHT22;6179;51.748;8.728;2022-08-30T19:03:54;21.00;70.30
12233;DHT22;6179;51.748;8.728;2022-08-30T19:09:55;20.70;71.60
12233;DHT22;6179;51.748;8.728;2022-08-30T19:15:56;20.40;72.10
12233;DHT22;6179;51.748;8.728;2022-08-30T19:21:57;20.30;72.40
12233;DHT22;6179;51.748;8.728;2022-08-30T19:27:58;20.00;73.40
12233;DHT22;6179;51.748;8.728;2022-08-30T19:33:59;19.90;73.80
12233;DHT22;6179;51.748;8.728;2022-08-30T19:40:06;19.70;74.90
12233;DHT22;6179;51.748;8.728;2022-08-30T19:46:09;19.30;76.30
12233;DHT22;6179;51.748;8.728;2022-08-30T19:52:10;19.20;77.40
12233;DHT22;6179;51.748;8.728;2022-08-30T19:58:11;19.10;77.30
12233;DHT22;6179;51.748;8.728;2022-08-30T20:04:12;18.80;78.50
12233;DHT22;6179;51.748;8.728;2022-08-30T20:10:14;18.90;78.20
12233;DHT22;6179;51.748;8.728;2022-08-30T20:16:17;18.80;78.40
12233;DHT22;6179;51.748;8.728;2022-08-30T20:22:18;18.80;78.70
12233;DHT22;6179;51.748;8.728;2022-08-30T20:28:19;18.80;78.30
12233;DHT22;6179;51.748;8.728;2022-08-30T20:34:20;18.60;79.70
12233;DHT22;6179;51.748;8.728;2022-08-30T20:40:26;18.60;79.40
12233;DHT22;6179;51.748;8.728;2022-08-30T20:46:27;18.30;80.80
12233;DHT22;6179;51.748;8.728;2022-08-30T20:52:28;18.10;81.20
12233;DHT22;6179;51.748;8.728;2022-08-30T20:58:29;18.00;82.30
12233;DHT22;6179;51.748;8.728;2022-08-30T21:04:30;18.10;83.50
12233;DHT22;6179;51.748;8.728;2022-08-30T21:10:31;18.20;84.50
12233;DHT22;6179;51.748;8.728;2022-08-30T21:16:34;18.50;84.70
12233;DHT22;6179;51.748;8.728;2022-08-30T21:22:35;18.80;84.40
12233;DHT22;6179;51.748;8.728;2022-08-30T21:28:40;19.00;84.40
12233;DHT22;6179;51.748;8.728;2022-08-30T21:34:41;19.10;84.40
12233;DHT22;6179;51.748;8.728;2022-08-30T21:41:01;18.90;85.00
12233;DHT22;6179;51.748;8.728;2022-08-30T21:47:03;18.90;84.90
12233;DHT22;6179;51.748;8.728;2022-08-30T21:53:04;18.90;85.00
12233;DHT22;6179;51.748;8.728;2022-08-30T21:59:06;19.00;85.10
12233;DHT22;6179;51.748;8.728;2022-08-30T22:05:08;19.00;85.10
12233;DHT22;6179;51.748;8.728;2022-08-30T22:11:10;19.10;84.70
12233;DHT22;6179;51.748;8.728;2022-08-30T22:17:14;18.80;85.50
12233;DHT22;6179;51.748;8.728;2022-08-30T22:23:15;18.90;85.20
12233;DHT22;6179;51.748;8.728;2022-08-30T22:29:16;18.60;86.50
12233;DHT22;6179;51.748;8.728;2022-08-30T22:35:17;18.80;85.30
12233;DHT22;6179;51.748;8.728;2022-08-30T22:41:19;18.60;86.40
12233;DHT22;6179;51.748;8.728;2022-08-30T22:47:22;18.80;85.80
12233;DHT22;6179;51.748;8.728;2022-08-30T22:53:22;18.40;87.00
12233;DHT22;6179;51.748;8.728;2022-08-30T22:59:24;18.50;86.50
12233;DHT22;6179;51.748;8.728;2022-08-30T23:05:25;18.40;87.60
12233;DHT22;6179;51.748;8.728;2022-08-30T23:11:26;18.20;87.80
12233;DHT22;6179;51.748;8.728;2022-08-30T23:17:27;18.40;87.70
12233;DHT22;6179;51.748;8.728;2022-08-30T23:23:28;18.50;87.40
12233;DHT22;6179;51.748;8.728;2022-08-30T23:29:47;18.50;87.30
12233;DHT22;6179;51.748;8.728;2022-08-30T23:36:12;18.30;88.00
12233;DHT22;6179;51.748;8.728;2022-08-30T23:42:32;18.30;88.30
12233;DHT22;6179;51.748;8.728;2022-08-30T23:48:51;18.30;88.50
12233;DHT22;6179;51.748;8.728;2022-08-30T23:55:11;18.40;88.00
